createdAt,value
2023-04-28T00:00:12.123Z,4.64
2023-04-28T00:00:37.476Z,6.11
2023-04-28T00:00:58.839Z,6.11
2023-04-28T00:01:30.308Z,6.11
2023-04-28T00:02:02.210Z,6.11
2023-04-28T00:02:34.593Z,6.11
2023-04-28T00:03:06.332Z,6.11
2023-04-28T00:03:38.422Z,6.11
2023-04-28T00:04:10.536Z,6.00
2023-04-28T00:04:37.735Z,6.00
2023-04-28T00:04:58.898Z,6.00
2023-04-28T00:05:31.182Z,6.00
2023-04-28T00:06:02.371Z,6.00
2023-04-28T00:06:34.505Z,5.05
2023-04-28T00:07:06.257Z,6.00
2023-04-28T00:07:38.498Z,4.84
2023-04-28T00:08:10.614Z,6.00
2023-04-28T00:08:37.494Z,6.00
2023-04-28T00:08:58.413Z,6.00
2023-04-28T00:09:30.282Z,6.00
2023-04-28T00:10:03.811Z,6.00
2023-04-28T00:10:34.517Z,6.00
2023-04-28T00:11:06.341Z,6.00
2023-04-28T00:11:38.598Z,6.00
2023-04-28T00:12:10.427Z,6.00
2023-04-28T00:12:37.536Z,4.74
2023-04-28T00:12:58.791Z,3.83
2023-04-28T00:13:30.300Z,6.00
2023-04-28T00:14:02.494Z,6.00
2023-04-28T00:14:34.259Z,6.00
2023-04-28T00:15:07.705Z,6.00
2023-04-28T00:15:38.525Z,4.14
2023-04-28T00:16:10.433Z,6.00
2023-04-28T00:16:37.753Z,4.84
2023-04-28T00:16:58.541Z,4.34
2023-04-28T00:17:30.660Z,6.00
2023-04-28T00:18:02.269Z,6.00
2023-04-28T00:18:34.277Z,6.00
2023-04-28T00:19:06.224Z,6.00
2023-04-28T00:19:38.425Z,6.00
2023-04-28T00:20:10.804Z,4.94
2023-04-28T00:20:37.313Z,5.88
2023-04-28T00:20:58.925Z,5.88
2023-04-28T00:21:30.171Z,5.88
2023-04-28T00:22:02.251Z,5.88
2023-04-28T00:22:34.255Z,5.88
2023-04-28T00:23:06.151Z,5.88
2023-04-28T00:23:38.303Z,5.88
2023-04-28T00:24:10.153Z,5.88
2023-04-28T00:24:37.466Z,5.88
2023-04-28T00:24:58.604Z,5.88
2023-04-28T00:25:30.759Z,5.88
2023-04-28T00:26:02.279Z,5.88
2023-04-28T00:26:34.424Z,5.88
2023-04-28T00:27:06.258Z,5.77
2023-04-28T00:27:38.496Z,5.77
2023-04-28T00:28:10.379Z,5.77
2023-04-28T00:28:37.420Z,5.77
2023-04-28T00:28:58.395Z,4.57
2023-04-28T00:29:30.706Z,5.77
2023-04-28T00:30:04.548Z,5.77
2023-04-28T00:30:34.372Z,5.77
2023-04-28T00:31:06.303Z,5.77
2023-04-28T00:31:38.591Z,5.77
2023-04-28T00:32:10.429Z,5.77
2023-04-28T00:32:38.032Z,4.57
2023-04-28T00:32:58.678Z,5.77
2023-04-28T00:33:30.313Z,5.77
2023-04-28T00:34:02.304Z,5.77
2023-04-28T00:34:34.376Z,5.77
2023-04-28T00:35:07.231Z,5.77
2023-04-28T00:35:38.537Z,5.77
2023-04-28T00:36:12.970Z,5.77
2023-04-28T00:36:38.100Z,5.77
2023-04-28T00:36:58.956Z,5.77
2023-04-28T00:37:30.261Z,5.77
2023-04-28T00:38:02.371Z,5.77
2023-04-28T00:38:34.174Z,5.77
2023-04-28T00:39:06.530Z,5.77
2023-04-28T00:39:38.539Z,5.77
2023-04-28T00:40:10.710Z,5.77
2023-04-28T00:40:37.450Z,5.77
2023-04-28T00:40:58.785Z,5.77
2023-04-28T00:41:30.500Z,5.77
2023-04-28T00:42:02.126Z,5.77
2023-04-28T00:42:34.405Z,5.77
2023-04-28T00:43:06.268Z,5.77
2023-04-28T00:43:38.404Z,5.72
2023-04-28T00:44:10.241Z,5.72
2023-04-28T00:44:37.654Z,5.72
2023-04-28T00:44:58.481Z,5.72
2023-04-28T00:45:31.475Z,5.77
2023-04-28T00:46:02.158Z,5.77
2023-04-28T00:46:34.803Z,4.33
2023-04-28T00:47:06.252Z,5.77
2023-04-28T00:47:38.507Z,5.77
2023-04-28T00:48:10.209Z,5.72
2023-04-28T00:48:37.683Z,5.72
2023-04-28T00:48:58.827Z,5.72
2023-04-28T00:49:30.260Z,5.72
2023-04-28T00:50:03.500Z,5.72
2023-04-28T00:50:34.458Z,5.72
2023-04-28T00:51:06.194Z,5.72
2023-04-28T00:51:38.362Z,4.73
2023-04-28T00:52:10.131Z,4.18
2023-04-28T00:52:38.130Z,5.72
2023-04-28T00:52:58.317Z,5.72
2023-04-28T00:53:30.210Z,5.72
2023-04-28T00:54:02.128Z,5.72
2023-04-28T00:54:34.217Z,4.42
2023-04-28T00:55:07.119Z,5.72
2023-04-28T00:55:38.428Z,5.72
2023-04-28T00:56:10.144Z,5.72
2023-04-28T00:56:37.867Z,5.72
2023-04-28T00:56:58.829Z,4.62
2023-04-28T00:57:30.225Z,4.52
2023-04-28T00:58:02.126Z,5.72
2023-04-28T00:58:34.380Z,5.72
2023-04-28T00:59:06.151Z,5.72
2023-04-28T00:59:38.861Z,5.72
2023-04-28T01:00:12.532Z,5.77
2023-04-28T01:00:37.584Z,5.77
2023-04-28T01:00:58.955Z,5.77
2023-04-28T01:02:02.190Z,5.77
2023-04-28T01:02:34.376Z,5.77
2023-04-28T01:03:06.257Z,4.48
2023-04-28T01:03:38.686Z,5.77
2023-04-28T01:04:10.489Z,5.77
2023-04-28T01:04:37.589Z,5.77
2023-04-28T01:04:58.459Z,5.77
2023-04-28T01:05:30.767Z,5.72
2023-04-28T01:06:02.220Z,4.73
2023-04-28T01:06:34.250Z,5.72
2023-04-28T01:07:06.237Z,5.72
2023-04-28T01:07:38.411Z,5.72
2023-04-28T01:08:10.224Z,3.81
2023-04-28T01:08:37.435Z,5.72
2023-04-28T01:08:58.271Z,5.72
2023-04-28T01:09:30.309Z,5.72
2023-04-28T01:10:03.505Z,5.72
2023-04-28T01:10:34.317Z,4.73
2023-04-28T01:11:06.197Z,4.73
2023-04-28T01:11:38.369Z,4.52
2023-04-28T01:12:10.227Z,5.72
2023-04-28T01:12:37.588Z,5.72
2023-04-28T01:12:58.644Z,4.52
2023-04-28T01:13:30.265Z,4.52
2023-04-28T01:14:02.232Z,5.72
2023-04-28T01:14:34.335Z,5.72
2023-04-28T01:15:06.123Z,5.72
2023-04-28T01:15:37.079Z,5.72
2023-04-28T01:16:09.518Z,5.72
2023-04-28T01:16:35.934Z,5.72
2023-04-28T01:16:57.419Z,4.42
2023-04-28T01:17:28.840Z,5.72
2023-04-28T01:18:01.411Z,4.73
2023-04-28T01:18:33.275Z,5.72
2023-04-28T01:19:05.518Z,5.72
2023-04-28T01:19:36.788Z,4.42
2023-04-28T01:20:09.916Z,5.72
2023-04-28T01:20:35.927Z,4.52
2023-04-28T01:20:57.969Z,5.61
2023-04-28T01:21:29.617Z,5.61
2023-04-28T01:22:00.842Z,5.61
2023-04-28T01:22:33.447Z,5.61
2023-04-28T01:23:04.908Z,4.39
2023-04-28T01:23:36.770Z,5.61
2023-04-28T01:24:09.701Z,4.05
2023-04-28T01:24:36.407Z,4.60
2023-04-28T01:24:58.245Z,4.29
2023-04-28T01:25:30.084Z,5.61
2023-04-28T01:26:01.389Z,4.39
2023-04-28T01:26:33.467Z,5.61
2023-04-28T01:27:05.352Z,5.61
2023-04-28T01:27:36.864Z,4.29
2023-04-28T01:28:10.002Z,5.61
2023-04-28T01:28:35.816Z,4.29
2023-04-28T01:28:57.383Z,4.05
2023-04-28T01:29:29.422Z,5.61
2023-04-28T01:30:02.338Z,4.26
2023-04-28T01:30:32.988Z,5.50
2023-04-28T01:31:05.556Z,5.50
2023-04-28T01:31:37.646Z,5.50
2023-04-28T01:32:09.636Z,5.50
2023-04-28T01:32:36.415Z,5.50
2023-04-28T01:32:57.340Z,5.50
2023-04-28T01:33:29.419Z,5.50
2023-04-28T01:34:01.228Z,5.50
2023-04-28T01:34:33.003Z,3.93
2023-04-28T01:35:05.863Z,5.50
2023-04-28T01:35:37.438Z,4.26
2023-04-28T01:36:09.383Z,5.50
2023-04-28T01:36:37.813Z,5.50
2023-04-28T01:36:59.152Z,5.50
2023-04-28T01:37:29.107Z,5.50
2023-04-28T01:38:01.301Z,5.50
2023-04-28T01:38:33.300Z,5.50
2023-04-28T01:39:04.950Z,5.50
2023-04-28T01:39:37.976Z,5.50
2023-04-28T01:40:10.497Z,5.50
2023-04-28T01:40:37.033Z,5.50
2023-04-28T01:40:58.476Z,5.50
2023-04-28T01:41:29.958Z,5.50
2023-04-28T01:42:08.523Z,4.16
2023-04-28T01:42:39.986Z,5.50
2023-04-28T01:43:08.970Z,5.50
2023-04-28T01:43:40.365Z,5.50
2023-04-28T01:44:12.337Z,5.50
2023-04-28T01:44:39.367Z,5.50
2023-04-28T01:44:59.356Z,5.50
2023-04-28T01:45:32.533Z,5.50
2023-04-28T01:46:03.100Z,5.50
2023-04-28T01:46:34.894Z,5.50
2023-04-28T01:47:06.915Z,5.50
2023-04-28T01:47:38.370Z,5.50
2023-04-28T01:48:11.378Z,5.50
2023-04-28T01:48:37.837Z,5.50
2023-04-28T01:48:59.069Z,5.50
2023-04-28T01:49:30.242Z,5.38
2023-04-28T01:50:03.957Z,5.50
2023-04-28T01:50:34.373Z,5.38
2023-04-28T01:51:06.326Z,5.38
2023-04-28T01:51:38.479Z,5.38
2023-04-28T01:52:10.244Z,5.38
2023-04-28T01:52:37.524Z,5.38
2023-04-28T01:52:58.442Z,5.38
2023-04-28T01:53:30.552Z,5.38
2023-04-28T01:54:02.451Z,5.38
2023-04-28T01:54:34.338Z,5.38
2023-04-28T01:55:07.250Z,5.38
2023-04-28T01:55:38.316Z,5.27
2023-04-28T01:56:10.254Z,5.27
2023-04-28T01:56:37.430Z,5.27
2023-04-28T01:56:58.352Z,5.27
2023-04-28T01:57:30.220Z,5.27
2023-04-28T01:58:02.503Z,5.27
2023-04-28T01:58:34.341Z,5.27
2023-04-28T01:59:06.281Z,5.27
2023-04-28T01:59:38.227Z,5.27
2023-04-28T02:00:11.300Z,5.27
2023-04-28T02:00:37.578Z,5.27
2023-04-28T02:00:58.841Z,5.27
2023-04-28T02:01:30.275Z,5.27
2023-04-28T02:02:02.639Z,5.27
2023-04-28T02:02:34.514Z,5.27
2023-04-28T02:03:06.413Z,5.27
2023-04-28T02:03:38.599Z,5.27
2023-04-28T02:04:10.437Z,5.27
2023-04-28T02:04:37.561Z,5.27
2023-04-28T02:04:58.558Z,5.38
2023-04-28T02:05:30.950Z,5.38
2023-04-28T02:06:02.559Z,5.38
2023-04-28T02:06:34.285Z,5.38
2023-04-28T02:07:06.469Z,5.38
2023-04-28T02:07:38.446Z,5.38
2023-04-28T02:08:10.185Z,5.38
2023-04-28T02:08:37.412Z,5.38
2023-04-28T02:08:58.353Z,5.38
2023-04-28T02:09:30.359Z,5.50
2023-04-28T02:10:03.985Z,5.50
2023-04-28T02:10:34.387Z,5.50
2023-04-28T02:11:06.349Z,5.50
2023-04-28T02:11:38.438Z,5.50
2023-04-28T02:12:10.250Z,5.50
2023-04-28T02:12:37.345Z,5.50
2023-04-28T02:12:58.374Z,5.50
2023-04-28T02:13:30.267Z,5.50
2023-04-28T02:14:02.428Z,5.50
2023-04-28T02:14:34.393Z,5.50
2023-04-28T02:15:07.939Z,5.50
2023-04-28T02:15:38.379Z,5.50
2023-04-28T02:16:10.271Z,5.38
2023-04-28T02:16:37.411Z,5.38
2023-04-28T02:16:58.759Z,5.38
2023-04-28T02:17:30.647Z,5.38
2023-04-28T02:18:02.433Z,5.38
2023-04-28T02:18:34.526Z,5.38
2023-04-28T02:19:06.522Z,5.38
2023-04-28T02:19:38.279Z,5.38
2023-04-28T02:20:10.901Z,5.38
2023-04-28T02:20:37.327Z,5.38
2023-04-28T02:20:58.917Z,5.50
2023-04-28T02:21:30.817Z,5.50
2023-04-28T02:22:02.506Z,5.50
2023-04-28T02:22:34.424Z,5.50
2023-04-28T02:23:06.312Z,5.50
2023-04-28T02:23:38.469Z,5.50
2023-04-28T02:24:10.215Z,5.50
2023-04-28T02:24:37.535Z,5.50
2023-04-28T02:24:58.341Z,5.50
2023-04-28T02:25:30.847Z,5.50
2023-04-28T02:26:02.423Z,5.50
2023-04-28T02:26:34.620Z,5.50
2023-04-28T02:27:06.325Z,5.50
2023-04-28T02:27:38.549Z,5.50
2023-04-28T02:28:10.304Z,5.50
2023-04-28T02:28:37.452Z,5.50
2023-04-28T02:28:58.378Z,5.61
2023-04-28T02:29:30.290Z,5.61
2023-04-28T02:30:04.715Z,5.61
2023-04-28T02:30:35.066Z,5.61
2023-04-28T02:31:06.552Z,5.61
2023-04-28T02:31:38.641Z,5.72
2023-04-28T02:32:10.388Z,5.72
2023-04-28T02:32:37.953Z,5.72
2023-04-28T02:32:58.507Z,5.72
2023-04-28T02:33:30.270Z,5.72
2023-04-28T02:34:02.506Z,5.72
2023-04-28T02:34:34.374Z,5.72
2023-04-28T02:35:07.297Z,5.72
2023-04-28T02:35:38.625Z,5.72
2023-04-28T02:36:10.317Z,5.72
2023-04-28T02:36:38.585Z,5.72
2023-04-28T02:36:58.249Z,5.77
2023-04-28T02:37:30.220Z,5.77
2023-04-28T02:38:02.391Z,5.77
2023-04-28T02:38:34.580Z,5.77
2023-04-28T02:39:06.442Z,5.77
2023-04-28T02:39:38.375Z,4.79
2023-04-28T02:40:10.771Z,5.88
2023-04-28T02:40:37.508Z,5.88
2023-04-28T02:40:59.188Z,5.88
2023-04-28T02:41:30.298Z,5.88
2023-04-28T02:42:02.439Z,5.88
2023-04-28T02:42:34.349Z,5.88
2023-04-28T02:43:06.396Z,6.00
2023-04-28T02:43:38.578Z,6.00
2023-04-28T02:44:10.304Z,5.05
2023-04-28T02:44:37.435Z,5.05
2023-04-28T02:44:58.411Z,6.00
2023-04-28T02:45:33.248Z,6.11
2023-04-28T02:46:02.467Z,6.11
2023-04-28T02:46:34.267Z,4.97
2023-04-28T02:47:06.420Z,5.18
2023-04-28T02:47:38.589Z,6.11
2023-04-28T02:48:10.441Z,6.22
2023-04-28T02:48:37.473Z,6.22
2023-04-28T02:48:58.358Z,5.30
2023-04-28T02:49:30.265Z,6.22
2023-04-28T02:50:03.620Z,6.22
2023-04-28T02:50:34.306Z,6.22
2023-04-28T02:51:06.348Z,6.27
2023-04-28T02:51:38.364Z,6.27
2023-04-28T02:52:10.275Z,6.27
2023-04-28T02:52:37.438Z,6.27
2023-04-28T02:52:58.374Z,6.27
2023-04-28T02:53:30.458Z,6.27
2023-04-28T02:54:02.519Z,6.27
2023-04-28T02:54:34.969Z,6.27
2023-04-28T02:55:07.283Z,4.32
2023-04-28T02:55:38.387Z,5.36
2023-04-28T02:56:10.189Z,6.22
2023-04-28T02:56:37.418Z,6.22
2023-04-28T02:56:58.354Z,6.22
2023-04-28T02:57:30.301Z,6.22
2023-04-28T02:58:02.426Z,6.22
2023-04-28T02:58:34.681Z,6.22
2023-04-28T02:59:06.753Z,6.22
2023-04-28T02:59:38.363Z,6.22
2023-04-28T03:00:11.377Z,6.22
2023-04-28T03:00:37.425Z,6.22
2023-04-28T03:00:58.968Z,6.22
2023-04-28T03:01:30.329Z,6.11
2023-04-28T03:02:02.406Z,4.87
2023-04-28T03:02:34.426Z,6.11
2023-04-28T03:03:06.553Z,6.11
2023-04-28T03:03:38.581Z,6.11
2023-04-28T03:04:10.340Z,6.11
2023-04-28T03:04:37.498Z,4.72
2023-04-28T03:04:58.584Z,5.18
2023-04-28T03:05:30.750Z,6.11
2023-04-28T03:06:02.465Z,6.11
2023-04-28T03:06:34.227Z,6.11
2023-04-28T03:07:06.414Z,6.11
2023-04-28T03:07:38.416Z,6.11
2023-04-28T03:08:10.239Z,6.11
2023-04-28T03:08:37.436Z,6.11
2023-04-28T03:08:58.302Z,6.11
2023-04-28T03:09:30.404Z,6.11
2023-04-28T03:10:03.764Z,6.11
2023-04-28T03:10:34.391Z,6.11
2023-04-28T03:11:06.417Z,6.11
2023-04-28T03:11:38.428Z,6.00
2023-04-28T03:12:10.770Z,6.00
2023-04-28T03:12:37.351Z,6.00
2023-04-28T03:12:58.417Z,4.74
2023-04-28T03:13:30.271Z,6.00
2023-04-28T03:14:02.428Z,4.74
2023-04-28T03:14:34.266Z,6.00
2023-04-28T03:15:07.639Z,6.00
2023-04-28T03:15:38.507Z,6.00
2023-04-28T03:16:10.403Z,6.00
2023-04-28T03:16:37.415Z,6.00
2023-04-28T03:16:58.355Z,6.00
2023-04-28T03:17:30.391Z,4.51
2023-04-28T03:18:02.511Z,5.05
2023-04-28T03:18:34.386Z,6.00
2023-04-28T03:19:06.495Z,6.00
2023-04-28T03:19:38.450Z,6.00
2023-04-28T03:20:10.691Z,6.00
2023-04-28T03:20:37.396Z,6.00
2023-04-28T03:20:58.952Z,6.00
2023-04-28T03:21:30.345Z,6.00
2023-04-28T03:22:02.559Z,4.84
2023-04-28T03:22:34.596Z,6.00
2023-04-28T03:23:06.551Z,6.00
2023-04-28T03:23:38.434Z,6.00
2023-04-28T03:24:10.507Z,6.00
2023-04-28T03:24:37.458Z,5.05
2023-04-28T03:24:59.143Z,6.11
2023-04-28T03:25:30.774Z,4.87
2023-04-28T03:26:02.388Z,5.07
2023-04-28T03:26:34.360Z,5.18
2023-04-28T03:27:06.381Z,5.18
2023-04-28T03:27:38.350Z,6.11
2023-04-28T03:28:10.230Z,5.18
2023-04-28T03:28:37.420Z,4.87
2023-04-28T03:28:58.423Z,6.11
2023-04-28T03:29:30.261Z,6.11
2023-04-28T03:30:04.822Z,6.11
2023-04-28T03:30:35.021Z,6.11
2023-04-28T03:31:06.403Z,4.26
2023-04-28T03:31:38.461Z,4.68
2023-04-28T03:32:10.562Z,6.22
2023-04-28T03:32:37.535Z,4.52
2023-04-28T03:32:58.768Z,4.33
2023-04-28T03:33:30.288Z,6.22
2023-04-28T03:34:03.169Z,6.22
2023-04-28T03:34:34.309Z,6.22
2023-04-28T03:35:07.389Z,6.22
2023-04-28T03:35:38.395Z,6.22
2023-04-28T03:36:10.370Z,6.22
2023-04-28T03:36:37.331Z,5.09
2023-04-28T03:36:59.146Z,6.22
2023-04-28T03:37:30.300Z,6.22
2023-04-28T03:38:02.529Z,6.22
2023-04-28T03:38:34.414Z,5.00
2023-04-28T03:39:06.840Z,5.30
2023-04-28T03:39:38.627Z,5.19
2023-04-28T03:40:10.757Z,6.11
2023-04-28T03:40:37.377Z,6.11
2023-04-28T03:40:58.901Z,6.11
2023-04-28T03:41:30.362Z,6.11
2023-04-28T03:42:02.546Z,6.11
2023-04-28T03:42:34.284Z,6.11
2023-04-28T03:43:06.727Z,4.97
2023-04-28T03:43:38.479Z,4.97
2023-04-28T03:44:10.430Z,6.11
2023-04-28T03:44:37.413Z,6.11
2023-04-28T03:44:58.448Z,6.11
2023-04-28T03:45:31.417Z,6.11
2023-04-28T03:46:03.977Z,6.11
2023-04-28T03:46:39.769Z,5.07
2023-04-28T03:47:06.566Z,4.97
2023-04-28T03:47:38.313Z,3.62
2023-04-28T03:48:10.772Z,6.11
2023-04-28T03:48:37.427Z,6.11
2023-04-28T03:48:58.440Z,4.02
2023-04-28T03:49:30.335Z,5.00
2023-04-28T03:50:03.964Z,5.09
2023-04-28T03:50:34.681Z,5.30
2023-04-28T03:51:06.426Z,5.00
2023-04-28T03:51:38.450Z,5.30
2023-04-28T03:52:10.619Z,5.00
2023-04-28T03:52:37.421Z,4.82
2023-04-28T03:52:58.402Z,5.36
2023-04-28T03:53:30.255Z,6.27
2023-04-28T03:54:02.498Z,5.15
2023-04-28T03:54:34.874Z,6.27
2023-04-28T03:55:07.531Z,6.27
2023-04-28T03:55:38.587Z,6.27
2023-04-28T03:56:10.473Z,6.27
2023-04-28T03:56:37.568Z,6.27
2023-04-28T03:56:58.863Z,4.82
2023-04-28T03:57:30.532Z,5.36
2023-04-28T03:58:02.731Z,6.27
2023-04-28T03:58:34.501Z,5.15
2023-04-28T03:59:06.575Z,6.27
2023-04-28T03:59:38.589Z,6.38
2023-04-28T04:00:11.542Z,5.04
2023-04-28T04:00:37.613Z,5.04
2023-04-28T04:00:59.005Z,4.95
2023-04-28T04:01:30.593Z,6.38
2023-04-28T04:02:02.778Z,5.04
2023-04-28T04:02:34.771Z,5.18
2023-04-28T04:03:06.714Z,4.95
2023-04-28T04:03:38.873Z,6.38
2023-04-28T04:04:10.964Z,5.28
2023-04-28T04:04:37.936Z,4.59
2023-04-28T04:04:58.641Z,5.28
2023-04-28T04:05:31.493Z,5.42
2023-04-28T04:06:02.791Z,4.36
2023-04-28T04:06:34.590Z,5.42
2023-04-28T04:07:06.593Z,6.50
2023-04-28T04:07:38.726Z,5.62
2023-04-28T04:08:10.488Z,5.09
2023-04-28T04:08:37.675Z,5.32
2023-04-28T04:08:58.972Z,5.09
2023-04-28T04:09:30.479Z,6.50
2023-04-28T04:10:04.759Z,4.52
2023-04-28T04:10:34.608Z,4.72
2023-04-28T04:11:06.633Z,4.72
2023-04-28T04:11:38.587Z,4.86
2023-04-28T04:12:10.514Z,6.61
2023-04-28T04:12:37.949Z,5.64
2023-04-28T04:12:58.618Z,5.22
2023-04-28T04:13:30.541Z,5.31
2023-04-28T04:14:02.721Z,5.54
2023-04-28T04:14:34.917Z,5.75
2023-04-28T04:15:08.070Z,6.61
2023-04-28T04:15:38.841Z,5.64
2023-04-28T04:16:10.630Z,5.64
2023-04-28T04:16:37.992Z,5.22
2023-04-28T04:16:58.758Z,4.43
2023-04-28T04:17:30.644Z,4.86
2023-04-28T04:18:02.880Z,5.45
2023-04-28T04:18:34.635Z,4.65
2023-04-28T04:19:06.622Z,6.61
2023-04-28T04:19:38.700Z,6.61
2023-04-28T04:20:10.951Z,6.61
2023-04-28T04:20:37.719Z,6.61
2023-04-28T04:20:59.130Z,6.72
2023-04-28T04:21:30.573Z,5.67
2023-04-28T04:22:02.662Z,5.77
2023-04-28T04:22:34.638Z,5.67
2023-04-28T04:23:06.683Z,4.69
2023-04-28T04:23:38.640Z,5.87
2023-04-28T04:24:10.611Z,5.63
2023-04-28T04:24:37.756Z,5.49
2023-04-28T04:24:59.088Z,5.41
2023-04-28T04:25:31.070Z,5.83
2023-04-28T04:26:02.750Z,5.63
2023-04-28T04:26:34.675Z,5.17
2023-04-28T04:27:06.601Z,6.77
2023-04-28T04:27:38.630Z,5.93
2023-04-28T04:28:10.545Z,5.49
2023-04-28T04:28:37.734Z,6.77
2023-04-28T04:28:58.615Z,5.93
2023-04-28T04:29:30.778Z,5.63
2023-04-28T04:30:05.028Z,5.11
2023-04-28T04:30:34.718Z,5.18
2023-04-28T04:31:06.701Z,6.88
2023-04-28T04:31:38.776Z,6.88
2023-04-28T04:32:11.127Z,5.24
2023-04-28T04:32:37.976Z,4.98
2023-04-28T04:32:58.688Z,5.93
2023-04-28T04:33:30.677Z,5.41
2023-04-28T04:34:02.734Z,5.85
2023-04-28T04:34:34.738Z,6.88
2023-04-28T04:35:07.482Z,6.88
2023-04-28T04:35:38.727Z,5.62
2023-04-28T04:36:10.547Z,5.85
2023-04-28T04:36:37.663Z,6.88
2023-04-28T04:36:58.751Z,6.88
2023-04-28T04:37:31.027Z,6.05
2023-04-28T04:38:02.760Z,5.76
2023-04-28T04:38:34.569Z,6.88
2023-04-28T04:39:06.655Z,6.05
2023-04-28T04:39:38.551Z,6.88
2023-04-28T04:40:11.085Z,6.88
2023-04-28T04:40:37.660Z,6.88
2023-04-28T04:40:59.005Z,5.37
2023-04-28T04:41:30.815Z,6.88
2023-04-28T04:42:10.450Z,6.88
2023-04-28T04:42:34.687Z,7.00
2023-04-28T04:43:06.739Z,7.00
2023-04-28T04:43:38.599Z,5.99
2023-04-28T04:44:11.032Z,5.99
2023-04-28T04:44:37.685Z,5.76
2023-04-28T04:44:58.682Z,5.32
2023-04-28T04:45:31.798Z,7.00
2023-04-28T04:46:02.664Z,5.76
2023-04-28T04:46:36.190Z,5.90
2023-04-28T04:47:06.750Z,5.99
2023-04-28T04:47:38.769Z,5.67
2023-04-28T04:48:10.840Z,5.19
2023-04-28T04:48:37.688Z,5.90
2023-04-28T04:48:58.674Z,6.19
2023-04-28T04:49:30.630Z,5.90
2023-04-28T04:50:04.040Z,5.25
2023-04-28T04:50:35.124Z,7.11
2023-04-28T04:51:07.302Z,6.12
2023-04-28T04:51:38.670Z,6.02
2023-04-28T04:52:10.710Z,7.11
2023-04-28T04:52:38.038Z,7.11
2023-04-28T04:52:58.641Z,7.11
2023-04-28T04:53:30.679Z,5.45
2023-04-28T04:54:02.777Z,6.21
2023-04-28T04:54:34.654Z,6.32
2023-04-28T04:55:07.598Z,6.44
2023-04-28T04:55:39.045Z,6.34
2023-04-28T04:56:11.087Z,7.22
2023-04-28T04:56:38.382Z,7.22
2023-04-28T04:56:58.719Z,6.24
2023-04-28T04:57:30.804Z,5.77
2023-04-28T04:58:02.763Z,5.93
2023-04-28T04:58:34.645Z,5.58
2023-04-28T04:59:06.750Z,5.58
2023-04-28T04:59:38.882Z,6.15
2023-04-28T05:00:11.692Z,6.15
2023-04-28T05:00:37.946Z,5.45
2023-04-28T05:00:59.031Z,6.34
2023-04-28T05:01:30.610Z,6.15
2023-04-28T05:02:02.668Z,7.22
2023-04-28T05:02:34.840Z,6.21
2023-04-28T05:03:06.825Z,6.50
2023-04-28T05:03:38.631Z,7.27
2023-04-28T05:04:10.719Z,7.27
2023-04-28T05:04:37.991Z,7.27
2023-04-28T05:05:08.034Z,6.50
2023-04-28T05:05:31.339Z,7.27
2023-04-28T05:06:02.699Z,5.64
2023-04-28T05:06:35.145Z,6.30
2023-04-28T05:07:06.599Z,7.27
2023-04-28T05:07:38.670Z,6.52
2023-04-28T05:08:10.655Z,7.38
2023-04-28T05:08:37.914Z,7.38
2023-04-28T05:08:58.583Z,7.38
2023-04-28T05:09:30.570Z,7.38
2023-04-28T05:10:03.955Z,6.43
2023-04-28T05:10:34.704Z,7.38
2023-04-28T05:11:06.603Z,7.38
2023-04-28T05:11:38.566Z,7.38
2023-04-28T05:12:10.576Z,7.38
2023-04-28T05:12:37.826Z,7.38
2023-04-28T05:12:59.386Z,7.38
2023-04-28T05:13:30.627Z,6.63
2023-04-28T05:14:02.656Z,7.38
2023-04-28T05:14:34.722Z,6.34
2023-04-28T05:15:07.925Z,7.38
2023-04-28T05:15:38.690Z,7.38
2023-04-28T05:16:10.628Z,7.38
2023-04-28T05:16:37.745Z,7.38
2023-04-28T05:16:59.037Z,7.50
2023-04-28T05:17:30.579Z,7.50
2023-04-28T05:18:02.717Z,7.50
2023-04-28T05:18:34.603Z,7.50
2023-04-28T05:19:06.787Z,7.50
2023-04-28T05:19:38.605Z,7.50
2023-04-28T05:20:12.744Z,7.50
2023-04-28T05:20:37.806Z,7.50
2023-04-28T05:20:59.020Z,7.61
2023-04-28T05:21:30.708Z,7.61
2023-04-28T05:22:02.656Z,7.61
2023-04-28T05:22:34.594Z,7.61
2023-04-28T05:23:06.666Z,7.61
2023-04-28T05:23:38.571Z,7.61
2023-04-28T05:24:10.616Z,7.61
2023-04-28T05:24:37.543Z,7.61
2023-04-28T05:24:58.596Z,7.61
2023-04-28T05:25:31.075Z,7.61
2023-04-28T05:26:02.862Z,6.89
2023-04-28T05:26:34.582Z,7.61
2023-04-28T05:27:06.686Z,7.61
2023-04-28T05:27:38.644Z,7.61
2023-04-28T05:28:10.706Z,6.89
2023-04-28T05:28:37.781Z,6.89
2023-04-28T05:28:58.700Z,7.61
2023-04-28T05:29:30.689Z,7.61
2023-04-28T05:30:04.965Z,7.61
2023-04-28T05:30:34.817Z,7.72
2023-04-28T05:31:06.608Z,7.72
2023-04-28T05:31:38.617Z,7.72
2023-04-28T05:32:10.702Z,7.72
2023-04-28T05:32:37.779Z,7.72
2023-04-28T05:32:58.685Z,7.72
2023-04-28T05:33:30.568Z,7.72
2023-04-28T05:34:02.719Z,7.72
2023-04-28T05:34:34.877Z,7.72
2023-04-28T05:35:07.662Z,7.72
2023-04-28T05:35:38.611Z,7.72
2023-04-28T05:36:10.634Z,7.72
2023-04-28T05:36:37.854Z,7.01
2023-04-28T05:36:58.741Z,7.72
2023-04-28T05:37:30.592Z,7.72
2023-04-28T05:38:02.665Z,7.72
2023-04-28T05:38:34.970Z,7.72
2023-04-28T05:39:06.887Z,7.72
2023-04-28T05:39:38.729Z,7.77
2023-04-28T05:40:10.997Z,7.77
2023-04-28T05:40:38.033Z,7.07
2023-04-28T05:40:59.484Z,7.77
2023-04-28T05:41:30.594Z,7.77
2023-04-28T05:42:02.738Z,7.77
2023-04-28T05:42:34.614Z,7.77
2023-04-28T05:43:06.704Z,7.77
2023-04-28T05:43:38.552Z,7.77
2023-04-28T05:44:10.651Z,7.77
2023-04-28T05:44:37.675Z,7.77
2023-04-28T05:44:59.108Z,7.77
2023-04-28T05:45:31.624Z,7.88
2023-04-28T05:46:02.764Z,7.88
2023-04-28T05:46:34.631Z,7.88
2023-04-28T05:47:06.720Z,7.88
2023-04-28T05:47:38.834Z,7.88
2023-04-28T05:48:11.448Z,7.88
2023-04-28T05:48:37.620Z,7.88
2023-04-28T05:48:58.959Z,7.88
2023-04-28T05:49:30.599Z,7.88
2023-04-28T05:50:04.313Z,7.88
2023-04-28T05:50:35.670Z,8.00
2023-04-28T05:51:06.700Z,8.00
2023-04-28T05:51:38.860Z,8.00
2023-04-28T05:52:10.726Z,8.00
2023-04-28T05:52:37.796Z,8.00
2023-04-28T05:52:58.642Z,8.00
2023-04-28T05:53:30.548Z,8.00
2023-04-28T05:54:03.418Z,8.11
2023-04-28T05:54:34.703Z,8.11
2023-04-28T05:55:07.234Z,8.11
2023-04-28T05:55:38.644Z,8.11
2023-04-28T05:56:10.646Z,8.11
2023-04-28T05:56:37.727Z,8.11
2023-04-28T05:57:00.831Z,8.11
2023-04-28T05:57:33.913Z,8.11
2023-04-28T05:58:02.690Z,8.11
2023-04-28T05:58:35.024Z,8.11
2023-04-28T05:59:06.829Z,8.11
2023-04-28T05:59:38.615Z,8.11
2023-04-28T06:00:11.517Z,8.11
2023-04-28T06:00:37.880Z,8.11
2023-04-28T06:00:59.239Z,8.11
2023-04-28T06:01:30.607Z,8.11
2023-04-28T06:02:02.694Z,8.22
2023-04-28T06:02:34.957Z,8.22
2023-04-28T06:03:07.131Z,8.22
2023-04-28T06:03:39.088Z,8.22
2023-04-28T06:04:10.806Z,8.22
2023-04-28T06:04:37.968Z,8.22
2023-04-28T06:04:58.960Z,8.22
2023-04-28T06:05:31.310Z,8.22
2023-04-28T06:06:03.096Z,8.22
2023-04-28T06:06:34.614Z,8.22
2023-04-28T06:07:06.703Z,8.27
2023-04-28T06:07:38.783Z,8.27
2023-04-28T06:08:10.649Z,8.27
2023-04-28T06:08:37.654Z,8.27
2023-04-28T06:08:59.003Z,8.27
2023-04-28T06:09:30.573Z,8.27
2023-04-28T06:10:04.101Z,8.27
2023-04-28T06:10:34.622Z,8.27
2023-04-28T06:11:06.705Z,8.27
2023-04-28T06:11:38.617Z,8.27
2023-04-28T06:12:10.819Z,8.27
2023-04-28T06:12:37.672Z,8.27
2023-04-28T06:12:58.632Z,8.27
2023-04-28T06:13:30.664Z,8.27
2023-04-28T06:14:02.742Z,8.38
2023-04-28T06:14:34.823Z,8.27
2023-04-28T06:15:08.237Z,8.38
2023-04-28T06:15:38.732Z,8.38
2023-04-28T06:16:10.558Z,8.38
2023-04-28T06:16:37.810Z,8.38
2023-04-28T06:16:58.540Z,8.38
2023-04-28T06:17:30.635Z,8.38
2023-04-28T06:18:02.791Z,8.38
2023-04-28T06:18:34.596Z,8.38
2023-04-28T06:19:06.787Z,8.38
2023-04-28T06:19:38.631Z,8.38
2023-04-28T06:20:10.983Z,8.38
2023-04-28T06:20:38.068Z,8.38
2023-04-28T06:20:58.919Z,8.38
2023-04-28T06:21:30.677Z,8.38
2023-04-28T06:22:02.761Z,8.38
2023-04-28T06:22:35.013Z,8.50
2023-04-28T06:23:06.656Z,8.50
2023-04-28T06:23:38.577Z,8.50
2023-04-28T06:24:11.346Z,8.50
2023-04-28T06:24:37.874Z,8.50
2023-04-28T06:24:58.675Z,8.50
2023-04-28T06:25:31.523Z,8.50
2023-04-28T06:26:02.630Z,8.50
2023-04-28T06:26:34.880Z,8.50
2023-04-28T06:27:06.639Z,8.50
2023-04-28T06:27:38.558Z,8.50
2023-04-28T06:28:10.546Z,8.50
2023-04-28T06:28:37.905Z,8.50
2023-04-28T06:28:58.627Z,8.50
2023-04-28T06:29:30.534Z,8.50
2023-04-28T06:30:04.910Z,8.50
2023-04-28T06:30:35.245Z,8.61
2023-04-28T06:31:06.732Z,8.61
2023-04-28T06:31:38.793Z,8.61
2023-04-28T06:32:10.577Z,8.61
2023-04-28T06:32:37.770Z,8.61
2023-04-28T06:32:58.771Z,8.61
2023-04-28T06:33:30.526Z,8.61
2023-04-28T06:34:02.688Z,8.61
2023-04-28T06:34:34.705Z,8.61
2023-04-28T06:35:07.665Z,8.61
2023-04-28T06:35:38.688Z,8.72
2023-04-28T06:36:10.976Z,8.72
2023-04-28T06:36:37.695Z,8.72
2023-04-28T06:36:58.789Z,8.72
2023-04-28T06:37:31.156Z,8.72
2023-04-28T06:38:02.887Z,8.72
2023-04-28T06:38:34.936Z,8.72
2023-04-28T06:39:06.642Z,8.72
2023-04-28T06:39:38.723Z,8.72